Time;durP1;ratioP1;P1;durP2;ratioP2;P2;SDS_P1;SDS_P2;PMS_P1;PMS_P2;Temp;Humidity;BMP_temperature;BMP_pressure;BME280_temperature;BME280_humidity;BME280_pressure;Samples;Min_cycle;Max_cycle;Signal;HPM_P1;HPM_P2
2022/09/29 00:00:57;;;;;;;7.60;6.80;;;;;;;8.48;100.00;99895.69;5299010;28;20020;-75
2022/09/29 00:03:28;;;;;;;8.25;7.38;;;;;;;8.47;100.00;99888.84;5280611;28;20039;-75
2022/09/29 00:06:00;;;;;;;8.13;6.97;;;;;;;8.42;100.00;99891.88;5299067;28;20026;-75
2022/09/29 00:08:31;;;;;;;8.75;6.57;;;;;;;8.43;100.00;99890.91;5298165;28;20085;-75
2022/09/29 00:11:07;;;;;;;7.80;6.95;;;;;;;8.48;100.00;99895.69;5297947;28;20060;-75
2022/09/29 00:13:38;;;;;;;8.65;7.57;;;;;;;8.26;100.00;99881.97;5296862;28;20024;-75
2022/09/29 00:16:10;;;;;;;12.07;7.05;;;;;;;8.31;100.00;99888.56;5299192;28;20106;-75
2022/09/29 00:18:41;;;;;;;8.30;6.60;;;;;;;8.29;100.00;99891.28;5298919;28;20111;-75
2022/09/29 00:21:16;;;;;;;7.50;6.75;;;;;;;8.31;100.00;99892.00;5299630;28;20588;-75
2022/09/29 00:23:48;;;;;;;8.50;7.65;;;;;;;8.24;100.00;99889.09;5296286;28;20027;-75
2022/09/29 00:26:22;;;;;;;10.43;7.27;;;;;;;8.23;100.00;99884.03;5292644;28;20028;-75
2022/09/29 00:28:56;;;;;;;8.05;7.20;;;;;;;8.17;100.00;99884.56;5298771;28;20301;-75
2022/09/29 00:31:29;;;;;;;9.80;7.15;;;;;;;8.17;100.00;99887.19;5297731;28;20035;-75
2022/09/29 00:34:01;;;;;;;8.25;7.45;;;;;;;8.21;100.00;99886.75;5297131;28;20028;-75
2022/09/29 00:36:32;;;;;;;8.43;7.60;;;;;;;8.12;100.00;99887.59;5299205;28;20020;-75
2022/09/29 00:39:03;;;;;;;9.75;7.05;;;;;;;8.09;100.00;99879.22;5299072;28;20029;-75
2022/09/29 00:41:36;;;;;;;7.47;6.55;;;;;;;8.12;100.00;99884.19;5297701;28;20023;-75
2022/09/29 00:44:13;;;;;;;8.82;7.15;;;;;;;8.20;100.00;99877.31;5296176;28;20040;-75
2022/09/29 00:46:53;;;;;;;8.32;6.90;;;;;;;8.11;100.00;99892.97;5279704;28;20034;-75
2022/09/29 00:49:32;;;;;;;9.43;7.05;;;;;;;7.99;100.00;99889.66;5295041;28;20029;-75
2022/09/29 00:52:10;;;;;;;7.88;6.90;;;;;;;8.06;100.00;99888.16;5280375;28;20444;-75
2022/09/29 00:54:48;;;;;;;10.80;7.00;;;;;;;8.02;100.00;99890.19;5297343;28;20133;-75
2022/09/29 00:57:24;;;;;;;9.13;7.35;;;;;;;8.04;100.00;99890.09;5297172;28;20049;-75
2022/09/29 01:00:08;;;;;;;7.63;6.93;;;;;;;7.99;100.00;99874.84;5294808;28;20031;-75
2022/09/29 01:02:44;;;;;;;7.97;7.20;;;;;;;7.99;100.00;99882.69;5297824;28;20084;-75
2022/09/29 01:05:20;;;;;;;9.75;7.22;;;;;;;7.95;100.00;99881.28;5296671;28;20063;-75
2022/09/29 01:07:52;;;;;;;9.90;7.53;;;;;;;7.88;100.00;99876.75;5297213;28;20027;-75
2022/09/29 01:10:23;;;;;;;8.95;7.22;;;;;;;7.92;100.00;99886.78;5298911;28;20028;-75
2022/09/29 01:12:55;;;;;;;8.85;7.70;;;;;;;7.90;100.00;99875.66;5295632;28;20398;-75
2022/09/29 01:15:28;;;;;;;10.30;7.55;;;;;;;7.84;100.00;99872.75;5296593;28;20362;-75
2022/09/29 01:18:01;;;;;;;9.40;8.45;;;;;;;7.86;100.00;99878.69;5296833;28;20081;-75
2022/09/29 01:20:42;;;;;;;9.45;8.48;;;;;;;7.95;100.00;99880.44;5297992;28;20031;-74
2022/09/29 01:23:38;;;;;;;11.10;8.13;;;;;;;8.05;100.00;99878.69;5295400;28;20031;-75
2022/09/29 01:26:22;;;;;;;10.18;8.07;;;;;;;7.96;100.00;99875.13;5298652;28;20038;-75
2022/09/29 01:29:12;;;;;;;12.82;8.55;;;;;;;7.95;100.00;99872.63;5296873;28;20035;-74
2022/09/29 01:32:12;;;;;;;9.23;8.23;;;;;;;8.07;100.00;99878.53;5296861;28;20119;-75
2022/09/29 01:35:05;;;;;;;8.80;7.90;;;;;;;8.07;100.00;99882.00;5278104;28;20035;-75
2022/09/29 01:37:45;;;;;;;9.95;8.95;;;;;;;7.98;100.00;99883.63;5296736;28;20101;-75
2022/09/29 01:40:22;;;;;;;10.18;8.27;;;;;;;7.93;100.00;99883.22;5297230;28;20603;-75
2022/09/29 01:43:07;;;;;;;8.50;7.60;;;;;;;8.02;100.00;99886.78;5297919;28;20020;-75
2022/09/29 01:45:46;;;;;;;8.20;7.40;;;;;;;7.92;100.00;99883.34;5295258;28;20101;-74
2022/09/29 01:48:24;;;;;;;8.38;7.40;;;;;;;7.88;100.00;99882.81;5296589;28;20036;-75
2022/09/29 01:51:02;;;;;;;8.98;8.10;;;;;;;7.80;100.00;99888.69;5295893;28;20101;-75
2022/09/29 01:53:38;;;;;;;9.90;8.38;;;;;;;7.78;100.00;99889.78;5275539;28;20040;-75
2022/09/29 01:56:20;;;;;;;10.07;8.93;;;;;;;7.87;100.00;99886.34;5295145;28;20035;-75
2022/09/29 01:58:56;;;;;;;10.35;8.50;;;;;;;7.83;100.00;99889.38;5297875;28;20155;-74
2022/09/29 02:01:34;;;;;;;8.68;7.78;;;;;;;7.83;100.00;99890.19;5296762;28;20028;-75
2022/09/29 02:04:35;;;;;;;10.48;8.40;;;;;;;8.07;100.00;99895.03;5293925;28;20032;-75
2022/09/29 02:07:16;;;;;;;9.40;8.43;;;;;;;7.81;100.00;99886.91;5273982;28;20051;-75
2022/09/29 02:09:51;;;;;;;8.93;8.05;;;;;;;7.74;100.00;99891.03;5294064;28;20404;-74
2022/09/29 02:12:26;;;;;;;10.27;8.15;;;;;;;7.70;100.00;99885.25;5290537;28;20036;-75
2022/09/29 02:15:01;;;;;;;10.13;7.90;;;;;;;7.65;100.00;99889.19;5297000;28;20040;-75
2022/09/29 02:17:36;;;;;;;10.85;7.97;;;;;;;7.64;100.00;99892.78;5296302;28;20349;-74
2022/09/29 02:20:10;;;;;;;8.88;7.55;;;;;;;7.64;100.00;99891.00;5295341;28;20508;-75
2022/09/29 02:22:42;;;;;;;9.82;8.25;;;;;;;7.59;100.00;99889.75;5297286;28;20020;-75
2022/09/29 02:25:16;;;;;;;9.80;8.70;;;;;;;7.58;100.00;99886.34;5296085;28;20035;-75
2022/09/29 02:27:49;;;;;;;9.57;8.18;;;;;;;7.54;100.00;99890.16;5297412;28;20066;-75
2022/09/29 02:30:20;;;;;;;12.70;9.27;;;;;;;7.56;100.00;99893.44;5294227;28;20020;-75
2022/09/29 02:32:52;;;;;;;11.63;8.75;;;;;;;7.57;100.00;99895.91;5297482;28;20043;-75
2022/09/29 02:35:34;;;;;;;9.93;8.85;;;;;;;7.59;100.00;99889.75;5297422;28;20020;-74
2022/09/29 02:38:16;;;;;;;9.43;8.40;;;;;;;7.60;100.00;99888.78;5293061;28;20111;-75
2022/09/29 02:41:03;;;;;;;10.85;8.55;;;;;;;7.57;100.00;99893.31;5293805;28;20030;-75
2022/09/29 02:43:44;;;;;;;11.45;9.23;;;;;;;7.57;100.00;99892.47;5288201;28;20055;-75
2022/09/29 02:46:40;;;;;;;9.85;8.85;;;;;;;7.59;100.00;99890.56;5294459;28;20111;-75
2022/09/29 02:49:38;;;;;;;9.90;8.52;;;;;;;7.62;100.00;99894.72;5298642;28;20432;-75
2022/09/29 02:52:21;;;;;;;14.52;9.40;;;;;;;7.61;100.00;99891.25;5300121;28;20081;-75
2022/09/29 02:55:05;;;;;;;9.85;8.90;;;;;;;7.54;100.00;99890.16;5300890;28;20058;-75
2022/09/29 02:57:58;;;;;;;10.00;8.80;;;;;;;7.59;100.00;99889.75;5299262;28;20430;-75
2022/09/29 03:00:30;;;;;;;11.27;8.95;;;;;;;7.35;100.00;99887.50;5298798;28;20080;-76
2022/09/29 03:03:01;;;;;;;9.70;8.35;;;;;;;7.37;100.00;99894.22;5300243;28;20562;-75
2022/09/29 03:05:33;;;;;;;10.98;8.90;;;;;;;7.36;100.00;99891.75;5301268;28;20024;-76
2022/09/29 03:08:04;;;;;;;13.45;9.40;;;;;;;7.32;100.00;99899.03;5299263;28;20020;-76
2022/09/29 03:10:35;;;;;;;9.93;9.00;;;;;;;7.21;100.00;99880.88;5299821;28;20036;-75
2022/09/29 03:13:07;;;;;;;8.48;7.65;;;;;;;7.26;100.00;99887.31;5297120;28;20110;-76
2022/09/29 03:15:38;;;;;;;9.82;8.07;;;;;;;7.20;100.00;99889.66;5298433;28;20027;-77
2022/09/29 03:18:09;;;;;;;11.45;8.43;;;;;;;7.17;100.00;99890.75;5298898;28;20035;-76
2022/09/29 03:20:41;;;;;;;9.52;8.63;;;;;;;7.12;100.00;99895.50;5299694;28;20031;-76
2022/09/29 03:23:12;;;;;;;9.60;8.60;;;;;;;7.08;100.00;99883.69;5298768;28;20549;-76
2022/09/29 03:25:43;;;;;;;11.80;9.07;;;;;;;7.09;100.00;99894.97;5298869;28;20028;-76
2022/09/29 03:28:15;;;;;;;11.00;9.20;;;;;;;7.11;100.00;99885.22;5301143;28;20043;-76
2022/09/29 03:30:46;;;;;;;10.70;9.60;;;;;;;7.09;100.00;99892.34;5280249;28;20020;-76
2022/09/29 03:33:18;;;;;;;10.65;8.55;;;;;;;7.10;100.00;99896.59;5299056;28;20028;-76
2022/09/29 03:35:49;;;;;;;10.25;9.20;;;;;;;7.06;100.00;99890.84;5299345;28;20469;-76
2022/09/29 03:38:20;;;;;;;9.52;8.70;;;;;;;7.06;100.00;99893.44;5301125;28;20028;-76
2022/09/29 03:40:51;;;;;;;9.93;8.93;;;;;;;7.09;100.00;99885.38;5298935;28;20019;-76
2022/09/29 03:43:23;;;;;;;10.98;8.98;;;;;;;7.06;100.00;99896.03;5298948;28;20060;-76
2022/09/29 03:45:55;;;;;;;10.05;9.05;;;;;;;7.04;100.00;99898.75;5300369;28;20032;-76
2022/09/29 03:48:30;;;;;;;9.73;8.23;;;;;;;7.03;100.00;99897.13;5299070;28;20028;-76
2022/09/29 03:51:01;;;;;;;10.63;9.52;;;;;;;7.02;100.00;99897.25;5298039;28;20546;-78
2022/09/29 03:53:34;;;;;;;10.40;8.50;;;;;;;6.98;100.00;99885.44;5300423;28;20020;-76
2022/09/29 03:56:05;;;;;;;10.35;8.55;;;;;;;6.93;100.00;99890.22;5300026;28;20485;-76
2022/09/29 03:58:37;;;;;;;9.50;8.50;;;;;;;6.90;100.00;99893.91;5298907;28;20034;-76
2022/09/29 04:01:08;;;;;;;9.68;8.02;;;;;;;6.92;100.00;99893.78;5298854;28;20024;-76
2022/09/29 04:03:39;;;;;;;11.00;8.43;;;;;;;6.89;100.00;99894.84;5299806;28;20027;-75
2022/09/29 04:06:11;;;;;;;11.77;8.70;;;;;;;6.93;100.00;99908.44;5293240;28;20032;-76
2022/09/29 04:08:42;;;;;;;10.60;8.20;;;;;;;6.94;100.00;99899.69;5296119;28;20043;-76
2022/09/29 04:11:14;;;;;;;9.43;8.43;;;;;;;6.91;100.00;99905.16;5298330;28;20019;-76
2022/09/29 04:13:45;;;;;;;9.55;8.65;;;;;;;6.87;100.00;99912.41;5296079;28;20068;-76
2022/09/29 04:16:16;;;;;;;10.18;8.32;;;;;;;6.82;100.00;99910.19;5281209;28;20119;-75
2022/09/29 04:18:48;;;;;;;8.95;7.88;;;;;;;6.75;100.00;99911.66;5299717;28;20024;-75
2022/09/29 04:21:19;;;;;;;11.15;8.52;;;;;;;6.75;100.00;99913.44;5293643;28;20120;-76
2022/09/29 04:23:50;;;;;;;9.77;8.77;;;;;;;6.73;100.00;99917.94;5298055;28;20055;-76
2022/09/29 04:26:22;;;;;;;10.13;8.52;;;;;;;6.75;100.00;99926.44;5298770;28;20414;-76
2022/09/29 04:28:54;;;;;;;9.77;8.82;;;;;;;6.69;100.00;99924.34;5299846;28;20055;-77
2022/09/29 04:31:25;;;;;;;11.20;8.67;;;;;;;6.65;100.00;99925.56;5295842;28;20380;-76
2022/09/29 04:33:57;;;;;;;10.38;8.55;;;;;;;6.60;100.00;99925.13;5295788;28;20032;-76
2022/09/29 04:36:28;;;;;;;9.63;8.50;;;;;;;6.64;100.00;99923.91;5299416;28;20024;-76
2022/09/29 04:38:59;;;;;;;11.05;8.65;;;;;;;6.60;100.00;99930.31;5295953;28;20024;-75
2022/09/29 04:41:33;;;;;;;9.63;8.63;;;;;;;6.61;100.00;99926.75;5277774;28;20032;-76
2022/09/29 04:44:05;;;;;;;10.57;9.48;;;;;;;6.55;100.00;99917.66;5298994;28;20050;-76
2022/09/29 04:46:36;;;;;;;10.55;8.70;;;;;;;6.53;100.00;99925.63;5297419;28;20027;-76
2022/09/29 04:49:07;;;;;;;9.73;8.73;;;;;;;6.57;100.00;99934.00;5298080;28;20052;-76
2022/09/29 04:51:38;;;;;;;10.68;8.95;;;;;;;6.55;100.00;99928.94;5299100;28;20028;-76
2022/09/29 04:54:10;;;;;;;9.75;8.75;;;;;;;6.54;100.00;99932.47;5297927;28;20071;-75
2022/09/29 04:56:41;;;;;;;10.45;8.68;;;;;;;6.47;100.00;99931.31;5294038;28;20070;-76
2022/09/29 04:59:12;;;;;;;9.68;8.70;;;;;;;6.48;100.00;99935.59;5298314;28;20024;-76
2022/09/29 05:01:44;;;;;;;9.77;8.73;;;;;;;6.39;100.00;99928.53;5299046;28;20024;-76
2022/09/29 05:04:15;;;;;;;11.40;9.43;;;;;;;6.45;100.00;99932.41;5298891;28;20028;-75
2022/09/29 05:06:46;;;;;;;11.63;9.45;;;;;;;6.49;100.00;99939.00;5297216;28;20082;-76
2022/09/29 05:09:18;;;;;;;10.48;9.48;;;;;;;6.49;100.00;99942.44;5298462;28;20054;-74
2022/09/29 05:11:49;;;;;;;11.80;10.70;;;;;;;6.48;100.00;99946.00;5297972;28;20038;-76
2022/09/29 05:14:20;;;;;;;12.90;9.68;;;;;;;6.47;100.00;99957.34;5290198;28;20542;-75
2022/09/29 05:16:54;;;;;;;10.38;9.23;;;;;;;6.53;100.00;99953.41;5297617;28;20028;-74
2022/09/29 05:19:25;;;;;;;;;;;;;;;7.09;100.00;99954.88;5298264;28;20381;-74
2022/09/29 05:21:57;;;;;;;11.23;8.87;;;;;;;6.58;100.00;99954.69;5287692;28;19920;-75
2022/09/29 05:24:28;;;;;;;13.00;10.80;;;;;;;6.54;100.00;99961.09;5292567;28;20036;-75
2022/09/29 05:27:00;;;;;;;10.55;9.27;;;;;;;6.43;100.00;99963.75;5298581;28;20034;-75
2022/09/29 05:29:31;;;;;;;10.77;9.73;;;;;;;6.46;100.00;99963.50;5296205;28;20109;-75
2022/09/29 05:32:02;;;;;;;12.02;10.90;;;;;;;6.45;100.00;99969.66;5295693;28;20038;-75
2022/09/29 05:34:34;;;;;;;10.48;9.48;;;;;;;6.46;100.00;99973.09;5296083;28;20062;-75
2022/09/29 05:37:05;;;;;;;14.48;10.27;;;;;;;6.45;100.00;99971.44;5296935;28;20038;-74
2022/09/29 05:39:36;;;;;;;11.27;10.13;;;;;;;6.41;100.00;99959.63;5273204;28;20020;-75
2022/09/29 05:42:10;;;;;;;12.27;11.02;;;;;;;6.53;100.00;99974.25;5293071;28;20031;-74
2022/09/29 05:44:41;;;;;;;12.70;10.88;;;;;;;6.46;100.00;99978.28;5294866;28;20040;-75
2022/09/29 05:47:12;;;;;;;11.68;10.48;;;;;;;6.43;100.00;99968.13;5295449;28;20027;-75
2022/09/29 05:49:44;;;;;;;11.55;10.40;;;;;;;6.40;100.00;99963.97;5296221;28;20043;-74
2022/09/29 05:52:15;;;;;;;11.25;10.15;;;;;;;6.43;100.00;99974.16;5297993;28;20392;-74
2022/09/29 05:54:49;;;;;;;13.88;12.15;;;;;;;6.43;100.00;99976.75;5296418;28;20028;-74
2022/09/29 05:57:21;;;;;;;12.90;11.35;;;;;;;6.45;100.00;99974.88;5284009;28;20028;-75
2022/09/29 05:59:52;;;;;;;13.50;11.10;;;;;;;6.43;100.00;99973.31;5295976;28;20024;-75
2022/09/29 06:02:23;;;;;;;13.30;11.90;;;;;;;6.46;100.00;99976.50;5290954;28;20027;-75
2022/09/29 06:04:55;;;;;;;16.30;11.95;;;;;;;6.51;100.00;99982.16;5296612;28;20028;-74
2022/09/29 06:07:26;;;;;;;13.48;12.13;;;;;;;6.53;100.00;99988.06;5269078;28;20069;-75
2022/09/29 06:09:57;;;;;;;13.48;12.02;;;;;;;6.53;100.00;99982.88;5296034;28;20035;-76
2022/09/29 06:12:33;;;;;;;13.95;11.52;;;;;;;6.62;100.00;99983.88;5293114;28;20015;-75
2022/09/29 06:15:05;;;;;;;13.93;12.48;;;;;;;6.55;100.00;99994.00;5294367;28;20680;-75
2022/09/29 06:17:36;;;;;;;14.65;12.20;;;;;;;6.61;100.00;99997.03;5295008;28;20610;-75
2022/09/29 06:20:08;;;;;;;14.90;12.85;;;;;;;6.60;100.00;99992.78;5293801;28;20024;-75
2022/09/29 06:22:39;;;;;;;16.67;12.13;;;;;;;6.64;100.00;100002.00;5297115;28;20028;-75
2022/09/29 06:25:10;;;;;;;15.52;12.40;;;;;;;6.66;100.00;100000.91;5297348;28;20601;-76
2022/09/29 06:27:41;;;;;;;15.10;12.20;;;;;;;6.67;100.00;100007.78;5287942;28;20105;-76
2022/09/29 06:30:13;;;;;;;14.40;12.82;;;;;;;6.69;100.00;99999.81;5294069;28;20026;-77
2022/09/29 06:32:44;;;;;;;14.50;11.98;;;;;;;6.63;100.00;99989.91;5285455;28;20031;-75
2022/09/29 06:38:06;;;;;;;13.43;12.10;;;;;;;6.73;100.00;100014.25;5297110;28;20044;-76
2022/09/29 06:40:37;;;;;;;13.82;12.43;;;;;;;6.75;100.00;100017.56;5295230;28;20435;-77
2022/09/29 06:43:10;;;;;;;13.88;12.48;;;;;;;6.80;100.00;100020.59;5285706;28;20038;-76
2022/09/29 06:45:41;;;;;;;14.73;13.23;;;;;;;6.88;100.00;100012.97;5285015;28;20039;-75
2022/09/29 06:48:12;;;;;;;14.95;13.35;;;;;;;6.87;100.00;100016.53;5287527;28;20028;-75
2022/09/29 06:50:44;;;;;;;14.93;13.18;;;;;;;6.94;100.00;100015.09;5291314;28;20036;-75
2022/09/29 06:53:15;;;;;;;25.52;15.50;;;;;;;6.99;100.00;100025.94;5293509;28;20031;-77
2022/09/29 06:55:55;;;;;;;14.75;12.45;;;;;;;7.15;100.00;100022.06;5286918;28;20024;-76
2022/09/29 06:58:26;;;;;;;15.60;12.85;;;;;;;7.10;100.00;100029.44;5290446;28;20548;-77
2022/09/29 07:01:02;;;;;;;15.90;12.90;;;;;;;7.24;100.00;100029.13;5291648;28;20032;-75
2022/09/29 07:03:34;;;;;;;17.08;12.90;;;;;;;7.17;100.00;100025.38;5290426;28;20124;-75
2022/09/29 07:06:07;;;;;;;15.25;12.60;;;;;;;7.27;100.00;100034.03;5295804;28;20158;-75
2022/09/29 07:08:39;;;;;;;16.25;13.95;;;;;;;7.29;100.00;100035.56;5296741;28;20035;-75
2022/09/29 07:11:10;;;;;;;20.50;14.98;;;;;;;7.36;100.00;100038.50;5294901;28;20032;-75
2022/09/29 07:13:42;;;;;;;15.70;13.48;;;;;;;7.37;100.00;100040.16;5293421;28;20032;-76
2022/09/29 07:16:13;;;;;;;16.38;13.27;;;;;;;7.41;100.00;100043.31;5292194;28;20256;-75
2022/09/29 07:18:45;;;;;;;18.48;13.77;;;;;;;7.44;100.00;100043.06;5296476;28;20469;-75
2022/09/29 07:21:18;;;;;;;15.18;13.40;;;;;;;7.52;100.00;100043.25;5292368;28;20027;-76
2022/09/29 07:23:49;;;;;;;15.53;13.80;;;;;;;7.56;100.00;100050.66;5297381;28;20107;-75
2022/09/29 07:26:21;;;;;;;17.08;14.57;;;;;;;7.61;100.00;100046.84;5289152;28;20429;-75
2022/09/29 07:28:52;;;;;;;15.02;13.45;;;;;;;7.62;100.00;100053.72;5296541;28;20028;-75
2022/09/29 07:31:23;;;;;;;18.42;13.82;;;;;;;7.69;100.00;100060.03;5294756;28;20023;-75
2022/09/29 07:33:55;;;;;;;20.08;13.27;;;;;;;7.78;100.00;100059.28;5294643;28;20473;-76
2022/09/29 07:36:27;;;;;;;15.55;13.32;;;;;;;7.74;100.00;100052.66;5297297;28;20115;-75
2022/09/29 07:38:58;;;;;;;18.75;13.63;;;;;;;7.87;100.00;100063.69;5299705;28;20034;-76
2022/09/29 07:41:29;;;;;;;15.60;13.80;;;;;;;7.95;100.00;100069.06;5299825;28;20177;-76
2022/09/29 07:44:01;;;;;;;15.77;13.25;;;;;;;8.01;100.00;100065.94;5298575;28;20024;-75
2022/09/29 07:46:32;;;;;;;16.75;13.82;;;;;;;8.12;100.00;100062.41;5298912;28;20115;-76
2022/09/29 07:49:04;;;;;;;18.00;13.38;;;;;;;8.20;100.00;100070.38;5296610;28;20052;-76
2022/09/29 07:51:35;;;;;;;17.70;14.38;;;;;;;8.29;100.00;100063.53;5298280;28;20059;-76
2022/09/29 07:54:06;;;;;;;20.45;14.45;;;;;;;8.35;100.00;100070.00;5296925;28;20415;-76
2022/09/29 07:56:37;;;;;;;18.15;13.38;;;;;;;8.38;100.00;100067.97;5280835;28;20484;-75
2022/09/29 07:59:10;;;;;;;15.82;13.63;;;;;;;8.51;100.00;100078.16;5298958;28;20103;-75
2022/09/29 08:01:41;;;;;;;17.65;13.50;;;;;;;8.57;100.00;100082.03;5278329;28;20541;-76
2022/09/29 08:04:12;;;;;;;19.60;13.45;;;;;;;8.65;100.00;100083.00;5298820;28;20132;-76
2022/09/29 08:06:45;;;;;;;17.25;13.43;;;;;;;8.71;100.00;100082.47;5299624;28;20472;-76
2022/09/29 08:09:16;;;;;;;18.67;14.88;;;;;;;8.83;100.00;100082.31;5276539;28;20039;-77
2022/09/29 08:11:47;;;;;;;18.40;14.65;;;;;;;8.92;100.00;100087.53;5296992;28;20412;-76
2022/09/29 08:14:19;;;;;;;18.70;14.18;;;;;;;8.91;100.00;100080.66;5299555;28;20509;-76
2022/09/29 08:16:50;;;;;;;17.45;13.18;;;;;;;9.05;100.00;100087.22;5296785;28;20467;-76
2022/09/29 08:19:21;;;;;;;16.05;14.35;;;;;;;9.13;100.00;100095.22;5294891;28;20033;-76
2022/09/29 08:21:53;;;;;;;17.10;12.25;;;;;;;9.20;100.00;100104.13;5299485;28;20073;-76
2022/09/29 08:24:24;;;;;;;15.63;13.48;;;;;;;9.23;100.00;100105.66;5296947;28;20040;-76
2022/09/29 08:26:56;;;;;;;15.65;13.98;;;;;;;9.26;100.00;100100.16;5298668;28;20045;-76
2022/09/29 08:29:27;;;;;;;18.85;13.77;;;;;;;9.26;100.00;100108.81;5297111;28;20012;-76
2022/09/29 08:31:59;;;;;;;16.58;12.75;;;;;;;9.26;100.00;100100.16;5297090;28;20028;-76
2022/09/29 08:34:30;;;;;;;16.75;12.00;;;;;;;9.22;100.00;100110.06;5295696;28;20039;-76
2022/09/29 08:37:01;;;;;;;15.98;12.52;;;;;;;9.32;100.00;100119.66;5296752;28;20028;-76
2022/09/29 08:39:34;;;;;;;15.68;13.05;;;;;;;9.34;100.00;100113.34;5280252;28;20028;-76
2022/09/29 08:42:26;;;;;;;16.60;12.52;;;;;;;9.61;100.00;100125.69;5297360;28;20027;-77
2022/09/29 08:45:06;;;;;;;14.73;12.70;;;;;;;9.54;100.00;100123.75;5293129;28;20404;-76
2022/09/29 08:47:43;;;;;;;14.27;11.90;;;;;;;9.48;100.00;100123.38;5294236;28;20469;-76
2022/09/29 08:50:27;;;;;;;15.23;12.05;;;;;;;9.62;100.00;100129.09;5290693;28;20070;-76
2022/09/29 08:53:05;;;;;;;17.42;12.55;;;;;;;9.56;100.00;100124.47;5297628;28;20468;-76
2022/09/29 08:56:03;;;;;;;16.23;12.30;;;;;;;9.79;100.00;100135.41;5297542;28;20075;-76
2022/09/29 08:58:37;;;;;;;15.70;11.63;;;;;;;9.65;100.00;100131.44;5293638;28;20495;-78
2022/09/29 09:01:23;;;;;;;15.23;12.23;;;;;;;9.75;100.00;100132.25;5298511;28;20024;-79
2022/09/29 09:04:14;;;;;;;18.10;12.90;;;;;;;9.91;100.00;100134.25;5294286;28;20534;-78
2022/09/29 09:07:13;;;;;;;16.85;12.13;;;;;;;9.94;100.00;100140.03;5295097;28;20035;-77
2022/09/29 09:10:05;;;;;;;14.00;11.63;;;;;;;10.09;100.00;100142.19;5298218;28;20023;-76
2022/09/29 09:13:03;;;;;;;14.73;12.13;;;;;;;10.20;100.00;100128.91;5297402;28;20107;-77
2022/09/29 09:15:47;;;;;;;14.60;11.35;;;;;;;10.15;100.00;100144.22;5295847;28;20293;-78
2022/09/29 09:18:39;;;;;;;13.50;12.10;;;;;;;10.37;100.00;100154.34;5291561;28;20028;-76
2022/09/29 09:21:23;;;;;;;14.65;11.25;;;;;;;10.48;100.00;100148.91;5294329;28;20115;-76
2022/09/29 09:24:04;;;;;;;12.63;11.32;;;;;;;10.57;100.00;100146.38;5296630;28;20036;-76
2022/09/29 09:26:44;;;;;;;13.85;11.93;;;;;;;10.78;100.00;100143.50;5297165;28;20038;-76
2022/09/29 09:29:31;;;;;;;13.95;11.80;;;;;;;11.02;100.00;100148.97;5297764;28;20035;-76
2022/09/29 09:32:12;;;;;;;13.52;11.82;;;;;;;11.10;100.00;100148.22;5294180;28;20111;-77
2022/09/29 09:34:54;;;;;;;12.63;10.38;;;;;;;11.28;100.00;100142.97;5294066;28;20035;-76
2022/09/29 09:37:40;;;;;;;13.27;11.10;;;;;;;11.37;100.00;100137.63;5295133;28;20076;-78
2022/09/29 09:40:28;;;;;;;12.55;10.05;;;;;;;11.51;100.00;100154.59;5295759;28;20468;-76
2022/09/29 09:43:06;;;;;;;11.73;9.05;;;;;;;11.50;100.00;100146.91;5298205;28;20077;-77
2022/09/29 09:45:48;;;;;;;11.52;9.43;;;;;;;11.73;100.00;100155.91;5295594;28;20023;-77
2022/09/29 09:48:34;;;;;;;9.90;8.80;;;;;;;12.03;100.00;100146.75;5294672;28;20083;-77
2022/09/29 09:51:37;;;;;;;8.65;7.75;;;;;;;12.30;100.00;100147.53;5297126;28;20043;-76
2022/09/29 09:54:51;;;;;;;7.78;6.65;;;;;;;12.51;100.00;100147.13;5292484;28;20051;-77
2022/09/29 09:57:38;;;;;;;7.90;6.33;;;;;;;12.57;100.00;100151.72;5291985;28;20122;-77
2022/09/29 10:00:27;;;;;;;7.18;5.95;;;;;;;12.72;100.00;100144.06;5291318;28;20298;-77
2022/09/29 10:03:03;;;;;;;7.18;5.43;;;;;;;12.83;100.00;100146.38;5294193;28;20043;-76
2022/09/29 10:05:46;;;;;;;8.13;5.80;;;;;;;13.07;100.00;100150.84;5297022;28;20056;-77
2022/09/29 10:08:37;;;;;;;7.72;5.88;;;;;;;13.18;100.00;100153.13;5293908;28;20016;-78
2022/09/29 10:11:21;;;;;;;6.10;4.78;;;;;;;13.37;100.00;100152.88;5295523;28;20161;-76
2022/09/29 10:14:13;;;;;;;7.95;5.10;;;;;;;13.68;100.00;100156.63;5291608;28;20615;-77
2022/09/29 10:16:53;;;;;;;7.00;4.57;;;;;;;13.60;100.00;100153.00;5296109;28;20028;-77
2022/09/29 10:19:55;;;;;;;4.82;3.85;;;;;;;13.91;100.00;100162.00;5294991;28;20059;-76
2022/09/29 10:22:28;;;;;;;3.38;2.88;;;;;;;13.83;100.00;100155.75;5293519;28;20089;-77
2022/09/29 10:25:17;;;;;;;;;;;;;;;14.40;100.00;100165.28;5298114;28;20027;-77
2022/09/29 10:27:52;;;;;;;5.03;3.72;;;;;;;14.08;100.00;100169.69;5291392;28;20460;-79
2022/09/29 10:30:33;;;;;;;4.30;3.72;;;;;;;14.28;100.00;100164.84;5295901;28;20028;-77
2022/09/29 10:33:05;;;;;;;4.30;3.10;;;;;;;14.14;100.00;100167.38;5292617;28;20023;-78
2022/09/29 10:35:39;;;;;;;5.35;3.88;;;;;;;14.16;100.00;100170.66;5292202;28;20054;-77
2022/09/29 10:38:23;;;;;;;5.70;3.75;;;;;;;14.49;100.00;100173.97;5294825;28;20024;-79
2022/09/29 10:40:57;;;;;;;5.65;3.60;;;;;;;14.47;100.00;100171.53;5297026;28;20028;-79
2022/09/29 10:43:38;;;;;;;5.15;3.47;;;;;;;14.71;100.00;100165.31;5292113;28;20024;-80
2022/09/29 10:46:34;;;;;;;5.00;3.28;;;;;;;14.88;100.00;100175.78;5296152;28;20038;-78
2022/09/29 10:49:21;;;;;;;4.28;3.65;;;;;;;14.86;100.00;100162.78;5296107;28;20036;-77
2022/09/29 10:52:15;;;;;;;5.50;3.88;;;;;;;14.98;100.00;100174.56;5295303;28;20401;-77
2022/09/29 10:55:02;;;;;;;5.97;3.30;;;;;;;14.89;100.00;100170.34;5297285;28;20441;-77
2022/09/29 10:57:34;;;;;;;5.15;3.55;;;;;;;14.58;100.00;100183.50;5295219;28;20081;-77
2022/09/29 11:00:06;;;;;;;5.65;3.72;;;;;;;14.60;100.00;100173.63;5292823;28;20025;-79
2022/09/29 11:02:40;;;;;;;5.20;3.50;;;;;;;14.75;100.00;100174.53;5295866;28;20082;-78
2022/09/29 11:05:18;;;;;;;4.47;3.35;;;;;;;14.78;100.00;100178.66;5295735;28;20092;-78
2022/09/29 11:07:51;;;;;;;5.20;3.65;;;;;;;14.78;100.00;100184.75;5294293;28;20043;-81
2022/09/29 11:10:37;;;;;;;4.47;3.28;;;;;;;15.12;100.00;100178.25;5295708;28;20388;-77
2022/09/29 11:13:16;;;;;;;4.40;3.10;;;;;;;15.22;100.00;100189.38;5300234;28;20493;-77
2022/09/29 11:15:48;;;;;;;4.40;2.78;;;;;;;15.11;100.00;100179.25;5298598;28;20028;-76
2022/09/29 11:18:34;;;;;;;4.25;3.17;;;;;;;15.47;100.00;100181.28;5296757;28;20397;-77
2022/09/29 11:21:38;;;;;;;3.38;2.63;;;;;;;15.85;100.00;100178.66;5299712;28;20031;-77
2022/09/29 11:24:21;;;;;;;4.20;2.72;;;;;;;15.84;100.00;100185.78;5298869;28;20036;-77
2022/09/29 11:27:15;;;;;;;4.78;2.60;;;;;;;15.82;100.00;100175.38;5297772;28;20053;-79
2022/09/29 11:29:53;;;;;;;3.08;2.05;;;;;;;15.78;100.00;100186.47;5299565;28;20047;-80
2022/09/29 11:32:29;;;;;;;2.78;1.83;;;;;;;15.58;100.00;100186.97;5280646;28;20391;-78
2022/09/29 11:35:29;;;;;;;4.22;2.47;;;;;;;15.58;100.00;100180.88;5290317;28;20031;-77
2022/09/29 11:38:25;;;;;;;3.58;2.10;;;;;;;15.92;100.00;100182.22;5299519;28;20035;-78
2022/09/29 11:40:56;;;;;;;2.25;1.50;;;;;;;15.67;100.00;100177.16;5298300;28;20122;-77
2022/09/29 11:43:49;;;;;;;3.13;1.70;;;;;;;15.57;100.00;100192.44;5297827;28;20039;-78
2022/09/29 11:46:58;;;;;;;3.38;1.35;;;;;;;15.75;100.00;100195.56;5293449;28;20503;-77
2022/09/29 11:50:12;;;;;;;2.10;1.30;;;;;;;15.64;100.00;100182.78;5287810;28;20258;-77
2022/09/29 11:52:52;;;;;;;3.75;1.60;;;;;;;15.85;100.00;100187.41;5295688;28;20059;-77
2022/09/29 11:55:54;;;;;;;3.67;1.52;;;;;;;16.00;100.00;100184.78;5295904;28;20617;-77
2022/09/29 11:58:34;;;;;;;3.20;1.65;;;;;;;16.11;100.00;100192.25;5297884;28;20028;-77
2022/09/29 12:01:12;;;;;;;5.30;1.58;;;;;;;16.34;100.00;100197.44;5298079;28;20164;-77
2022/09/29 12:04:10;;;;;;;2.25;1.35;;;;;;;16.67;100.00;100197.84;5278415;28;20031;-80
2022/09/29 12:07:15;;;;;;;3.58;1.60;;;;;;;16.89;100.00;100192.63;5288494;28;20041;-77
2022/09/29 12:10:02;;;;;;;4.78;1.73;;;;;;;16.82;100.00;100189.91;5279673;28;20048;-79